This is the latest recevied weather packets stored in our database for station/object KB9PMA-1. If no packets are shown the sender has not sent any weather packets the latest 10 day(s).
| Time | Temp. | Humidity | Pressure | Rain* | Wind** | Luminosity | Snow |
|---|---|---|---|---|---|---|---|
| 1777300399 | 18.89° C | 67% | 1015.2 hPa | 0 mm | - | - | - |
| 1777300099 | 18.89° C | 66% | 1015 hPa | 0 mm | - | - | - |
| 1777299799 | 18.33° C | 68% | 1015.1 hPa | 0 mm | - | - | - |
| 1777299499 | 18.33° C | 71% | 1015.2 hPa | 0 mm | - | - | - |
| 1777299199 | 17.78° C | 70% | 1015.3 hPa | 0 mm | - | - | - |
| 1777296799 | 15.56° C | 77% | 1016 hPa | 0 mm | - | - | - |
| 1777296499 | 15.56° C | 76% | 1016.1 hPa | 0 mm | - | - | - |
| 1777295899 | 15° C | 78% | 1016.2 hPa | 0 mm | - | - | - |
| 1777295599 | 15° C | 81% | 1016.6 hPa | 0 mm | - | - | - |
| 1777295299 | 14.44° C | 80% | 1016.7 hPa | 0 mm | - | - | - |
| 1777294699 | 13.89° C | 81% | 1016.5 hPa | 0 mm | - | - | - |
| 1777294399 | 13.89° C | 82% | 1016.5 hPa | 0 mm | - | - | - |
| 1777293199 | 12.78° C | 85% | 1016.9 hPa | 0 mm | - | - | - |
| 1777292899 | 12.78° C | 87% | 1016.9 hPa | 0 mm | - | - | - |
| 1777292599 | 12.22° C | 87% | 1016.9 hPa | 0 mm | - | - | - |
| 1777292299 | 12.22° C | 86% | 1016.9 hPa | 0 mm | - | - | - |
| 1777291999 | 12.22° C | 87% | 1016.9 hPa | 0 mm | - | - | - |
| 1777291699 | 11.67° C | 88% | 1016.8 hPa | 0 mm | - | - | - |
| 1777291399 | 11.67° C | 89% | 1016.8 hPa | 0 mm | - | - | - |
| 1777289599 | 10.56° C | 93% | 1016.5 hPa | 0 mm | - | - | - |
| 1777289299 | 10.56° C | 93% | 1016.5 hPa | 0 mm | - | - | - |
| 1777288999 | 10.56° C | 93% | 1016.6 hPa | 0 mm | - | - | - |
| 1777288699 | 10° C | 93% | 1016.7 hPa | 0 mm | - | - | - |
| 1777288399 | 10° C | 93% | 1016.8 hPa | 0 mm | - | - | - |
| 1777288099 | 10° C | 93% | 1017 hPa | 0 mm | - | - | - |
* Rain latest hour (hover to see other rain measurements)
** Current wind speed in m/s (hover to see current wind gust speed)